Time;durP1;ratioP1;P1;durP2;ratioP2;P2;SDS_P1;SDS_P2;PMS_P1;PMS_P2;Temp;Humidity;BMP_temperature;BMP_pressure;BME280_temperature;BME280_humidity;BME280_pressure;Samples;Min_cycle;Max_cycle;Signal;HPM_P1;HPM_P2
2022/08/25 00:01:55;;;;;;;6.45;3.20;;;26.30;56.30;;;;;;5093647;28;20361;-67
2022/08/25 00:04:22;;;;;;;7.33;3.00;;;26.30;56.10;;;;;;5093148;28;20016;-67
2022/08/25 00:06:48;;;;;;;6.07;2.67;;;26.30;55.90;;;;;;5062389;28;20297;-67
2022/08/25 00:09:17;;;;;;;5.88;3.10;;;26.30;56.00;;;;;;5091384;28;20121;-67
2022/08/25 00:11:43;;;;;;;5.25;2.80;;;26.20;55.80;;;;;;5068977;28;20040;-67
2022/08/25 00:14:13;;;;;;;6.30;3.00;;;26.20;56.30;;;;;;5077139;28;20035;-67
2022/08/25 00:16:39;;;;;;;5.88;2.75;;;26.20;55.70;;;;;;5079567;28;20039;-67
2022/08/25 00:19:09;;;;;;;5.50;2.95;;;26.20;55.60;;;;;;5096890;28;20028;-67
2022/08/25 00:21:35;;;;;;;6.40;2.90;;;26.20;55.50;;;;;;5094327;28;20024;-67
2022/08/25 00:24:01;;;;;;;7.55;3.30;;;26.20;55.40;;;;;;5079447;28;20027;-67
2022/08/25 00:26:27;;;;;;;8.07;3.30;;;26.20;55.30;;;;;;5077472;28;20038;-67
2022/08/25 00:28:53;;;;;;;7.63;2.83;;;26.20;55.20;;;;;;5078678;28;20034;-67
2022/08/25 00:31:22;;;;;;;6.20;3.17;;;26.20;55.10;;;;;;5094506;28;20073;-67
2022/08/25 00:33:49;;;;;;;6.32;3.17;;;26.10;55.00;;;;;;5079614;28;20083;-67
2022/08/25 00:36:17;;;;;;;7.07;3.08;;;26.10;54.80;;;;;;5094970;28;20112;-67
2022/08/25 00:38:45;;;;;;;6.55;3.20;;;26.10;54.80;;;;;;5076233;28;20052;-67
2022/08/25 00:41:16;;;;;;;7.20;3.10;;;26.10;54.80;;;;;;5055492;28;20024;-67
2022/08/25 00:43:45;;;;;;;;;;;26.10;54.70;;;;;;5055550;28;20341;-67
2022/08/25 00:46:18;;;;;;;6.10;2.80;;;26.10;54.80;;;;;;5092378;28;19915;-67
2022/08/25 00:48:48;;;;;;;4.97;2.50;;;26.00;54.60;;;;;;5094807;28;20036;-67
2022/08/25 00:51:20;;;;;;;7.68;3.33;;;26.00;54.60;;;;;;5084352;28;20101;-67
2022/08/25 00:53:46;;;;;;;5.93;2.70;;;26.00;54.60;;;;;;5096384;28;20047;-67
2022/08/25 00:56:13;;;;;;;6.40;3.10;;;26.00;54.60;;;;;;5093262;28;20036;-67
2022/08/25 00:58:40;;;;;;;6.63;2.78;;;26.00;54.50;;;;;;5096968;28;20031;-67
2022/08/25 01:01:06;;;;;;;7.20;3.47;;;26.00;54.40;;;;;;5093629;28;20039;-67
2022/08/25 01:03:32;;;;;;;6.30;3.13;;;26.00;54.40;;;;;;5096606;28;20027;-67
2022/08/25 01:05:59;;;;;;;6.50;3.20;;;26.00;54.30;;;;;;5075724;28;20399;-67
2022/08/25 01:08:28;;;;;;;6.50;3.20;;;25.90;54.30;;;;;;5094393;28;20103;-67
2022/08/25 01:10:56;;;;;;;5.00;2.90;;;25.90;54.30;;;;;;5074101;28;20036;-67
2022/08/25 01:13:31;;;;;;;5.55;2.83;;;25.90;54.20;;;;;;5078492;28;20048;-67
2022/08/25 01:15:57;;;;;;;7.97;3.17;;;25.90;54.50;;;;;;5092817;28;20035;-67
2022/08/25 01:18:26;;;;;;;8.07;3.10;;;25.80;54.50;;;;;;5094856;28;20028;-67
2022/08/25 01:20:56;;;;;;;7.45;3.13;;;25.80;54.60;;;;;;5093602;28;20035;-67
2022/08/25 01:23:23;;;;;;;6.55;3.10;;;25.80;54.40;;;;;;5064893;28;20051;-67
2022/08/25 01:26:09;;;;;;;7.82;3.35;;;25.70;54.40;;;;;;5093837;28;20456;-67
2022/08/25 01:28:36;;;;;;;6.63;3.03;;;25.70;54.40;;;;;;5094655;28;20097;-67
2022/08/25 01:31:03;;;;;;;6.38;3.47;;;25.70;54.50;;;;;;5076403;28;20040;-67
2022/08/25 01:33:29;;;;;;;5.60;3.00;;;25.60;54.50;;;;;;5077040;28;20462;-67
2022/08/25 01:35:55;;;;;;;6.82;3.10;;;25.60;54.50;;;;;;5094883;28;20103;-67
2022/08/25 01:38:21;;;;;;;6.10;3.15;;;25.60;54.40;;;;;;5092090;28;20027;-67
2022/08/25 01:40:46;;;;;;;6.25;3.00;;;25.60;54.40;;;;;;5092711;28;20445;-67
2022/08/25 01:43:34;;;;;;;6.85;2.97;;;25.60;54.40;;;;;;5093099;28;20541;-67
2022/08/25 01:46:00;;;;;;;6.10;3.00;;;25.60;54.40;;;;;;5076622;28;20334;-67
2022/08/25 01:48:25;;;;;;;6.80;3.03;;;25.60;54.50;;;;;;5093975;28;20039;-67
2022/08/25 01:50:51;;;;;;;5.90;3.28;;;25.50;54.40;;;;;;5074746;28;20063;-67
2022/08/25 01:53:27;;;;;;;6.38;3.10;;;25.50;54.60;;;;;;5095640;28;20055;-67
2022/08/25 01:56:00;;;;;;;7.32;2.88;;;25.40;54.50;;;;;;5091842;28;20020;-67
2022/08/25 01:58:35;;;;;;;6.57;3.28;;;25.40;54.60;;;;;;5092160;28;20352;-67
2022/08/25 02:01:05;;;;;;;5.80;2.92;;;25.40;54.40;;;;;;5072421;28;20478;-67
2022/08/25 02:03:31;;;;;;;6.03;3.00;;;25.40;54.40;;;;;;5078010;28;20035;-67
2022/08/25 02:05:58;;;;;;;6.43;3.35;;;25.40;54.60;;;;;;5094159;28;20882;-67
2022/08/25 02:08:25;;;;;;;5.65;3.00;;;25.40;54.60;;;;;;5092891;28;20023;-67
2022/08/25 02:10:52;;;;;;;6.68;3.00;;;25.40;54.60;;;;;;5074827;28;20299;-67
2022/08/25 02:13:19;;;;;;;6.68;3.35;;;25.30;54.50;;;;;;5091100;28;20354;-67
2022/08/25 02:15:49;;;;;;;8.68;2.78;;;25.40;54.30;;;;;;5092918;28;20032;-67
2022/08/25 02:18:16;;;;;;;6.22;2.95;;;25.40;54.10;;;;;;5072906;28;20051;-67
2022/08/25 02:20:41;;;;;;;6.63;3.33;;;25.30;54.00;;;;;;5095936;28;20038;-67
2022/08/25 02:23:07;;;;;;;6.53;3.45;;;25.40;54.00;;;;;;5073283;28;20123;-67
2022/08/25 02:25:33;;;;;;;6.75;3.30;;;25.40;54.00;;;;;;5093996;28;20039;-67
2022/08/25 02:27:59;;;;;;;6.80;3.03;;;25.40;53.80;;;;;;5068406;28;20035;-67
2022/08/25 02:30:25;;;;;;;8.77;3.13;;;25.40;53.60;;;;;;5090019;28;20038;-67
2022/08/25 02:32:52;;;;;;;8.50;3.58;;;25.40;53.70;;;;;;5059935;28;20081;-66
2022/08/25 02:35:18;;;;;;;7.28;3.33;;;25.40;53.50;;;;;;5094564;28;20081;-67
2022/08/25 02:37:43;;;;;;;6.30;3.13;;;25.40;53.20;;;;;;5072454;28;20016;-67
2022/08/25 02:40:09;;;;;;;6.68;3.28;;;25.40;53.00;;;;;;5059693;28;20089;-67
2022/08/25 02:42:35;;;;;;;5.85;3.03;;;25.40;53.40;;;;;;5059578;28;20470;-67
2022/08/25 02:45:01;;;;;;;7.60;2.92;;;25.40;52.50;;;;;;5076163;28;20066;-67
2022/08/25 02:47:26;;;;;;;8.30;3.40;;;25.40;52.40;;;;;;5076999;28;20028;-67
2022/08/25 02:49:52;;;;;;;6.00;3.15;;;25.40;52.30;;;;;;5077076;28;20391;-67
2022/08/25 02:52:19;;;;;;;5.78;3.08;;;25.40;52.10;;;;;;5070305;28;20496;-67
2022/08/25 02:54:44;;;;;;;6.70;3.20;;;25.40;52.70;;;;;;5094860;28;20028;-67
2022/08/25 02:57:11;;;;;;;10.50;3.10;;;25.50;52.00;;;;;;5092503;28;20417;-67
2022/08/25 02:59:37;;;;;;;8.75;3.38;;;25.50;51.90;;;;;;5082202;28;20111;-67
2022/08/25 03:02:04;;;;;;;6.90;3.58;;;25.50;51.80;;;;;;5080091;28;20024;-67
2022/08/25 03:04:30;;;;;;;6.20;2.95;;;25.40;51.60;;;;;;5068730;28;20108;-67
2022/08/25 03:06:56;;;;;;;6.63;3.35;;;25.50;51.60;;;;;;5069831;28;20032;-67
2022/08/25 03:09:22;;;;;;;5.47;3.15;;;25.40;51.50;;;;;;5094546;28;20035;-67
2022/08/25 03:11:48;;;;;;;7.68;3.40;;;25.40;51.50;;;;;;5093614;28;20429;-67
2022/08/25 03:14:14;;;;;;;7.47;3.30;;;25.40;51.50;;;;;;5065789;28;20035;-67
2022/08/25 03:16:41;;;;;;;7.85;3.25;;;25.40;51.50;;;;;;5074606;28;20028;-67
2022/08/25 03:19:07;;;;;;;6.55;3.33;;;25.40;51.50;;;;;;5081660;28;20028;-67
2022/08/25 03:21:33;;;;;;;6.80;3.55;;;25.30;51.50;;;;;;5075816;28;20084;-67
2022/08/25 03:23:59;;;;;;;7.72;3.28;;;25.30;51.50;;;;;;5061874;28;20040;-66
2022/08/25 03:29:10;;;;;;;7.78;3.22;;;25.30;51.60;;;;;;5090698;28;20218;-67
2022/08/25 03:31:36;;;;;;;9.65;3.00;;;25.20;51.60;;;;;;5075782;28;20035;-67
2022/08/25 03:34:03;;;;;;;7.78;3.75;;;25.30;51.80;;;;;;5072259;28;20043;-67
2022/08/25 03:36:28;;;;;;;6.30;3.00;;;25.20;51.90;;;;;;5061191;28;20032;-67
2022/08/25 03:38:54;;;;;;;6.47;3.10;;;25.20;52.00;;;;;;5073369;28;20039;-67
2022/08/25 03:41:27;;;;;;;6.45;3.33;;;25.10;52.10;;;;;;5075588;28;20016;-67
2022/08/25 03:43:54;;;;;;;6.28;2.78;;;25.10;52.20;;;;;;5074547;28;20024;-67
2022/08/25 03:46:28;;;;;;;9.07;3.50;;;25.10;52.30;;;;;;5094584;28;20031;-66
2022/08/25 03:48:54;;;;;;;6.63;3.63;;;25.10;52.30;;;;;;5076591;28;20035;-67
2022/08/25 03:51:25;;;;;;;6.32;3.60;;;25.10;52.30;;;;;;5070358;28;20107;-67
2022/08/25 03:53:52;;;;;;;6.75;3.13;;;25.00;52.40;;;;;;5075697;28;20082;-66
2022/08/25 03:56:18;;;;;;;7.82;3.40;;;25.00;52.40;;;;;;5079232;28;20031;-67
2022/08/25 03:58:45;;;;;;;6.95;3.53;;;25.00;52.40;;;;;;5076036;28;20032;-67
2022/08/25 04:01:10;;;;;;;8.95;3.67;;;25.00;52.50;;;;;;5079892;28;20046;-67
2022/08/25 04:03:36;;;;;;;7.00;4.03;;;25.00;52.50;;;;;;5095466;28;20023;-67
2022/08/25 04:06:04;;;;;;;6.97;3.58;;;24.90;52.30;;;;;;5094988;28;20036;-67
2022/08/25 04:08:30;;;;;;;7.63;4.03;;;24.90;52.30;;;;;;5092000;28;20056;-67
2022/08/25 04:10:56;;;;;;;7.47;3.33;;;24.90;52.30;;;;;;5079590;28;20055;-66
2022/08/25 04:13:21;;;;;;;12.00;3.45;;;24.90;52.40;;;;;;5077930;28;20055;-68
2022/08/25 04:15:47;;;;;;;6.95;3.60;;;24.90;52.50;;;;;;5097897;28;20020;-67
2022/08/25 04:18:13;;;;;;;7.57;3.55;;;24.90;52.60;;;;;;5093404;28;20028;-67
2022/08/25 04:20:42;;;;;;;6.30;3.20;;;24.80;52.50;;;;;;5058709;28;20020;-66
2022/08/25 04:23:10;;;;;;;7.45;3.20;;;24.80;52.60;;;;;;5065271;28;20086;-66
2022/08/25 04:25:41;;;;;;;8.05;3.55;;;24.80;52.80;;;;;;5088598;28;20027;-67
2022/08/25 04:28:08;;;;;;;7.45;3.67;;;24.70;52.70;;;;;;5092483;28;20369;-67
2022/08/25 04:30:34;;;;;;;6.45;3.45;;;24.70;52.80;;;;;;5066767;28;20039;-66
2022/08/25 04:33:00;;;;;;;9.07;3.95;;;24.70;52.80;;;;;;5079841;28;20446;-66
2022/08/25 04:35:25;;;;;;;6.47;3.53;;;24.60;52.80;;;;;;5065825;28;20020;-66
2022/08/25 04:37:51;;;;;;;7.68;3.70;;;24.70;52.90;;;;;;5087225;28;20442;-66
2022/08/25 04:40:16;;;;;;;7.45;3.95;;;24.60;52.90;;;;;;5089876;28;20028;-66
2022/08/25 04:42:43;;;;;;;11.13;3.95;;;24.60;53.00;;;;;;5093098;28;20349;-66
2022/08/25 04:45:09;;;;;;;8.63;4.20;;;24.60;53.10;;;;;;5062094;28;20032;-67
2022/08/25 04:47:38;;;;;;;9.80;4.20;;;24.50;53.20;;;;;;5075037;28;20040;-66
2022/08/25 04:50:06;;;;;;;9.07;4.05;;;24.50;53.20;;;;;;5077206;28;20032;-67
2022/08/25 04:52:32;;;;;;;6.38;3.80;;;24.50;53.30;;;;;;5078985;28;20027;-66
2022/08/25 04:54:58;;;;;;;8.27;4.10;;;24.40;53.40;;;;;;5060144;28;20020;-66
2022/08/25 04:57:25;;;;;;;7.22;3.47;;;24.40;53.40;;;;;;5096151;28;20105;-66
2022/08/25 04:59:50;;;;;;;8.07;3.88;;;24.40;53.60;;;;;;5087106;28;20027;-66
2022/08/25 05:02:16;;;;;;;6.93;4.03;;;24.40;53.60;;;;;;5084684;28;20047;-67
2022/08/25 05:04:42;;;;;;;9.50;3.95;;;24.40;54.20;;;;;;5072636;28;20020;-67
2022/08/25 05:07:08;;;;;;;7.03;3.67;;;24.40;53.60;;;;;;5076005;28;20116;-65
2022/08/25 05:09:33;;;;;;;8.85;3.85;;;24.40;53.60;;;;;;5069701;28;20028;-66
2022/08/25 05:12:02;;;;;;;7.43;3.72;;;24.30;53.70;;;;;;5096608;28;20040;-65
2022/08/25 05:14:28;;;;;;;6.95;3.55;;;24.30;53.80;;;;;;5073086;28;20116;-66
2022/08/25 05:16:54;;;;;;;6.60;3.65;;;24.30;53.80;;;;;;5091791;28;20104;-66
2022/08/25 05:19:22;;;;;;;8.98;4.25;;;24.30;53.90;;;;;;5095155;28;20024;-66
2022/08/25 05:21:48;;;;;;;6.85;4.05;;;24.30;53.90;;;;;;5094932;28;20453;-66
2022/08/25 05:24:14;;;;;;;6.65;3.60;;;24.30;54.00;;;;;;5077605;28;20039;-66
2022/08/25 05:26:40;;;;;;;8.45;4.03;;;24.30;54.00;;;;;;5078823;28;20092;-65
2022/08/25 05:29:05;;;;;;;7.35;3.75;;;24.30;54.00;;;;;;5092585;28;20039;-66
2022/08/25 05:31:32;;;;;;;7.30;3.90;;;24.30;54.00;;;;;;5094958;28;20036;-65
2022/08/25 05:33:59;;;;;;;9.80;4.22;;;24.30;54.00;;;;;;5059924;28;20032;-66
2022/08/25 05:36:26;;;;;;;6.75;3.95;;;24.30;54.00;;;;;;5092142;28;20437;-66
2022/08/25 05:38:52;;;;;;;7.78;4.40;;;24.30;53.80;;;;;;5095516;28;20031;-65
2022/08/25 05:41:24;;;;;;;7.82;4.30;;;24.30;53.80;;;;;;5090916;28;20433;-66
2022/08/25 05:43:50;;;;;;;7.97;4.32;;;24.30;53.70;;;;;;5083815;28;20032;-66
2022/08/25 05:46:17;;;;;;;8.85;4.38;;;24.30;53.80;;;;;;5093281;28;20024;-66
2022/08/25 05:48:43;;;;;;;7.85;4.05;;;24.30;53.70;;;;;;5084020;28;20028;-66
2022/08/25 05:51:10;;;;;;;11.60;4.07;;;24.40;53.70;;;;;;5088879;28;20024;-66
2022/08/25 05:53:38;;;;;;;10.07;4.63;;;24.40;53.60;;;;;;5077092;28;20060;-66
2022/08/25 05:56:04;;;;;;;8.32;4.15;;;24.40;53.60;;;;;;5064529;28;20025;-68
2022/08/25 05:58:30;;;;;;;6.32;3.47;;;24.40;54.20;;;;;;5091192;28;20429;-66
2022/08/25 06:00:57;;;;;;;7.80;3.83;;;24.50;53.60;;;;;;5086375;28;20330;-66
2022/08/25 06:03:23;;;;;;;8.45;3.78;;;24.60;53.40;;;;;;5094289;28;20047;-65
2022/08/25 06:05:49;;;;;;;8.82;4.20;;;24.70;53.20;;;;;;5093424;28;20054;-66
2022/08/25 06:08:15;;;;;;;10.50;4.70;;;24.70;53.10;;;;;;5094324;28;20028;-66
2022/08/25 06:10:41;;;;;;;7.25;4.13;;;24.80;53.10;;;;;;5093900;28;20156;-65
2022/08/25 06:13:07;;;;;;;7.15;3.97;;;24.90;53.00;;;;;;5077310;28;20059;-65
2022/08/25 06:15:33;;;;;;;7.38;3.95;;;25.10;52.80;;;;;;5090593;28;20084;-66
2022/08/25 06:18:00;;;;;;;9.18;3.60;;;25.60;52.00;;;;;;5086320;28;20211;-67
2022/08/25 06:20:29;;;;;;;8.30;3.92;;;26.30;50.80;;;;;;5067705;28;20024;-65
2022/08/25 06:22:55;;;;;;;11.30;4.00;;;27.10;49.50;;;;;;5065835;28;20106;-65
2022/08/25 06:25:24;;;;;;;7.68;3.63;;;27.70;48.60;;;;;;5087010;28;20025;-65
2022/08/25 06:27:50;;;;;;;7.28;3.33;;;28.10;47.80;;;;;;5090018;28;20024;-66
2022/08/25 06:30:18;;;;;;;7.22;3.83;;;28.20;47.40;;;;;;5087660;28;20027;-65
2022/08/25 06:32:45;;;;;;;9.05;3.65;;;28.20;47.30;;;;;;5075582;28;20127;-65
2022/08/25 06:35:17;;;;;;;6.53;3.50;;;28.10;47.50;;;;;;5084733;28;20059;-67
2022/08/25 06:37:43;;;;;;;9.40;3.97;;;28.00;47.50;;;;;;5082450;28;20035;-67
2022/08/25 06:40:10;;;;;;;9.23;3.90;;;27.80;47.50;;;;;;5068248;28;20028;-67
2022/08/25 06:42:36;;;;;;;8.50;3.60;;;27.70;47.50;;;;;;5095180;28;20107;-67
2022/08/25 06:45:02;;;;;;;7.60;4.18;;;27.70;47.60;;;;;;5077003;28;20031;-67
2022/08/25 06:47:28;;;;;;;7.30;3.42;;;27.70;47.50;;;;;;5095199;28;20024;-67
2022/08/25 06:49:54;;;;;;;8.73;3.70;;;27.70;47.30;;;;;;5094889;28;20035;-67
2022/08/25 06:52:19;;;;;;;7.30;3.70;;;27.80;47.10;;;;;;5059359;28;20028;-67
2022/08/25 06:54:46;;;;;;;10.20;4.32;;;27.90;47.10;;;;;;5094704;28;20016;-68
2022/08/25 06:57:11;;;;;;;9.02;3.67;;;28.00;46.90;;;;;;5077441;28;20035;-67
2022/08/25 06:59:38;;;;;;;9.35;3.78;;;28.00;46.70;;;;;;5094796;28;20444;-68
2022/08/25 07:02:04;;;;;;;6.63;3.40;;;28.10;46.60;;;;;;5094596;28;20035;-68
2022/08/25 07:04:31;;;;;;;8.18;3.70;;;28.20;46.50;;;;;;5094701;28;20117;-68
2022/08/25 07:06:56;;;;;;;7.18;3.67;;;28.30;46.30;;;;;;5094547;28;20472;-67
2022/08/25 07:09:22;;;;;;;7.32;3.90;;;28.40;46.10;;;;;;5093971;28;20066;-67
2022/08/25 07:11:48;;;;;;;7.85;3.50;;;28.50;45.90;;;;;;5076487;28;20052;-67
2022/08/25 07:14:16;;;;;;;7.03;3.55;;;28.50;45.90;;;;;;5077003;28;20043;-67
2022/08/25 07:16:42;;;;;;;7.28;3.67;;;28.70;45.80;;;;;;5094429;28;20020;-68
2022/08/25 07:19:09;;;;;;;8.73;3.78;;;28.80;45.40;;;;;;5094690;28;20348;-67
2022/08/25 07:21:37;;;;;;;8.02;3.90;;;28.90;45.20;;;;;;5092558;28;20020;-67
2022/08/25 07:24:08;;;;;;;7.65;3.65;;;29.00;45.20;;;;;;5093707;28;20055;-67
2022/08/25 07:26:35;;;;;;;7.18;3.72;;;29.10;44.90;;;;;;5094104;28;20028;-67
2022/08/25 07:29:04;;;;;;;9.00;3.80;;;29.10;44.80;;;;;;5094602;28;20103;-66
2022/08/25 07:31:30;;;;;;;10.90;3.47;;;29.20;44.60;;;;;;5076140;28;20119;-66
2022/08/25 07:36:41;;;;;;;9.23;3.55;;;29.40;44.30;;;;;;5087980;28;20056;-68
2022/08/25 07:39:07;;;;;;;8.32;3.40;;;29.60;44.20;;;;;;5086538;28;20066;-66
2022/08/25 07:41:37;;;;;;;8.55;3.13;;;29.70;44.00;;;;;;5093508;28;20048;-66
2022/08/25 07:44:04;;;;;;;7.07;3.60;;;29.80;43.90;;;;;;5069675;28;20470;-65
2022/08/25 07:46:29;;;;;;;9.82;3.78;;;30.00;43.90;;;;;;5057823;28;20036;-67
2022/08/25 07:48:55;;;;;;;9.98;3.63;;;30.10;43.70;;;;;;5059117;28;20146;-65
2022/08/25 07:51:21;;;;;;;8.13;3.67;;;30.20;43.60;;;;;;5086328;28;20061;-67
2022/08/25 07:53:46;;;;;;;7.78;3.40;;;30.30;43.40;;;;;;5093871;28;20081;-67
2022/08/25 07:56:14;;;;;;;7.93;3.88;;;30.40;43.30;;;;;;5069492;28;20448;-66
2022/08/25 07:58:42;;;;;;;7.32;3.15;;;30.50;43.30;;;;;;5072409;28;20091;-67
2022/08/25 08:01:14;;;;;;;8.35;3.45;;;30.60;43.10;;;;;;5063537;28;20112;-66
2022/08/25 08:03:40;;;;;;;7.43;3.35;;;30.70;43.10;;;;;;5084565;28;20024;-67
2022/08/25 08:06:08;;;;;;;8.32;3.70;;;30.80;43.00;;;;;;5088309;28;20033;-66
2022/08/25 08:08:35;;;;;;;7.55;3.30;;;30.80;43.00;;;;;;5082484;28;20089;-67
2022/08/25 08:11:01;;;;;;;8.15;3.13;;;30.80;42.90;;;;;;5045054;28;20044;-67
2022/08/25 08:13:26;;;;;;;7.25;3.40;;;30.90;42.80;;;;;;5058318;28;20036;-68
2022/08/25 08:15:52;;;;;;;7.82;3.40;;;30.90;42.60;;;;;;5073321;28;20397;-68
2022/08/25 08:18:18;;;;;;;9.30;2.75;;;31.00;42.70;;;;;;5080326;28;20144;-67
2022/08/25 08:20:46;;;;;;;7.57;3.50;;;31.00;42.60;;;;;;5053932;28;20032;-67
2022/08/25 08:23:12;;;;;;;7.32;3.17;;;31.00;42.60;;;;;;5080739;28;20084;-67
2022/08/25 08:25:38;;;;;;;7.47;3.22;;;31.00;42.60;;;;;;5078773;28;20365;-68
2022/08/25 08:28:04;;;;;;;9.13;3.28;;;31.00;42.60;;;;;;5067093;28;20020;-67
2022/08/25 08:30:30;;;;;;;7.72;2.92;;;31.10;42.60;;;;;;5052103;28;20078;-67
2022/08/25 08:32:55;;;;;;;10.68;2.92;;;31.10;42.50;;;;;;5066058;28;20059;-67
2022/08/25 08:35:22;;;;;;;7.68;3.00;;;31.10;42.50;;;;;;5058206;28;20024;-67
2022/08/25 08:37:47;;;;;;;7.45;3.63;;;31.10;42.50;;;;;;5056149;28;20028;-67
2022/08/25 08:40:19;;;;;;;7.78;3.38;;;31.30;42.30;;;;;;5053895;28;20031;-67
2022/08/25 08:43:11;;;;;;;12.35;3.63;;;31.40;42.10;;;;;;5052641;28;20166;-67
2022/08/25 08:45:43;;;;;;;7.63;3.22;;;31.60;42.00;;;;;;5086493;28;20043;-67
2022/08/25 08:48:41;;;;;;;6.35;3.20;;;31.70;41.90;;;;;;5058021;28;20036;-67
2022/08/25 08:51:14;;;;;;;6.63;3.00;;;31.90;41.70;;;;;;5085109;28;20032;-67
2022/08/25 08:53:57;;;;;;;8.73;3.17;;;32.00;41.40;;;;;;5072652;28;20036;-67
2022/08/25 08:56:37;;;;;;;6.85;3.28;;;32.10;41.30;;;;;;5078050;28;20365;-67
2022/08/25 08:59:29;;;;;;;5.78;3.13;;;32.20;41.10;;;;;;5062283;28;20032;-68
2022/08/25 09:01:58;;;;;;;6.40;2.92;;;32.30;41.10;;;;;;5071703;28;20093;-68
2022/08/25 09:04:48;;;;;;;6.38;3.38;;;32.40;41.00;;;;;;5065919;28;20033;-68
2022/08/25 09:07:19;;;;;;;7.13;2.97;;;32.50;40.70;;;;;;5066151;28;20115;-76
2022/08/25 09:09:45;;;;;;;9.27;3.20;;;32.70;41.40;;;;;;5062812;28;20038;-67
2022/08/25 09:12:14;;;;;;;8.13;3.17;;;32.70;40.60;;;;;;5084956;28;20040;-68
2022/08/25 09:14:53;;;;;;;7.25;3.20;;;32.80;41.10;;;;;;5092700;28;21228;-67
2022/08/25 09:17:57;;;;;;;8.48;3.40;;;32.80;40.20;;;;;;5075785;28;20341;-67
2022/08/25 09:20:46;;;;;;;5.65;2.80;;;32.90;40.30;;;;;;5063921;28;20065;-68
2022/08/25 09:24:09;;;;;;;6.18;2.90;;;33.00;40.10;;;;;;5074162;28;20028;-68
2022/08/25 09:26:43;;;;;;;7.88;2.90;;;33.10;39.80;;;;;;5011160;28;20061;-69
2022/08/25 09:29:14;;;;;;;4.40;2.45;;;33.20;39.60;;;;;;4998117;28;20033;-69
2022/08/25 09:31:41;;;;;;;5.63;2.97;;;33.30;39.50;;;;;;4995567;28;20124;-69
2022/08/25 09:34:23;;;;;;;6.18;2.70;;;33.30;39.50;;;;;;4996667;28;20448;-70
2022/08/25 09:36:51;;;;;;;6.63;2.88;;;33.50;39.40;;;;;;4993161;28;20175;-70
2022/08/25 09:39:18;;;;;;;6.10;2.90;;;33.50;39.30;;;;;;4997742;28;20460;-71
2022/08/25 09:41:59;;;;;;;6.25;3.03;;;33.60;39.40;;;;;;4997291;28;20036;-70
2022/08/25 09:44:43;;;;;;;6.05;2.53;;;33.70;38.90;;;;;;5009910;28;20034;-71
2022/08/25 09:47:23;;;;;;;6.38;2.63;;;33.80;39.00;;;;;;5008607;28;20041;-71
2022/08/25 09:49:50;;;;;;;8.43;2.97;;;34.00;38.90;;;;;;5013436;28;20038;-69
2022/08/25 09:52:27;;;;;;;6.60;2.90;;;34.00;38.80;;;;;;5010249;28;20029;-70
2022/08/25 09:55:20;;;;;;;6.03;2.47;;;34.10;38.60;;;;;;5009503;28;20046;-68
2022/08/25 09:57:48;;;;;;;6.53;2.85;;;34.20;38.20;;;;;;5050026;28;20036;-69
2022/08/25 10:00:23;;;;;;;5.65;2.40;;;34.20;38.00;;;;;;5090446;28;20043;-68
2022/08/25 10:03:19;;;;;;;6.60;2.80;;;34.30;37.90;;;;;;5089644;28;20365;-68
2022/08/25 10:06:11;;;;;;;5.68;2.55;;;34.20;37.60;;;;;;5059929;28;20041;-69
2022/08/25 10:08:36;;;;;;;6.05;2.80;;;34.20;37.40;;;;;;5070352;28;20028;-69
2022/08/25 10:11:14;;;;;;;4.60;2.22;;;34.20;37.30;;;;;;5092525;28;20031;-69
2022/08/25 10:13:41;;;;;;;5.40;2.38;;;34.40;36.90;;;;;;5059761;28;20435;-69
2022/08/25 10:16:24;;;;;;;5.22;2.28;;;34.40;36.90;;;;;;5085904;28;20028;-69
2022/08/25 10:19:08;;;;;;;6.57;2.60;;;34.50;36.70;;;;;;5093143;28;20020;-69
2022/08/25 10:21:37;;;;;;;5.05;2.53;;;34.60;36.60;;;;;;5074707;28;20062;-69
2022/08/25 10:24:04;;;;;;;7.55;2.80;;;34.70;36.60;;;;;;5095519;28;20440;-69
2022/08/25 10:26:54;;;;;;;5.38;2.88;;;34.80;36.50;;;;;;5053693;28;20367;-71
2022/08/25 10:29:33;;;;;;;4.93;2.63;;;34.80;36.40;;;;;;5062670;28;20039;-69
2022/08/25 10:32:09;;;;;;;6.10;2.78;;;35.00;36.40;;;;;;5068820;28;20048;-69
2022/08/25 10:34:41;;;;;;;5.10;2.53;;;35.10;36.40;;;;;;5076113;28;20346;-69
2022/08/25 10:37:16;;;;;;;4.93;2.83;;;35.10;36.30;;;;;;5067548;28;20032;-69
2022/08/25 10:39:56;;;;;;;5.60;2.30;;;35.30;36.40;;;;;;5087294;28;20302;-69
2022/08/25 10:42:34;;;;;;;;;;;35.30;36.00;;;;;;5083329;28;20125;-69
2022/08/25 10:48:21;;;;;;;5.97;2.67;;;35.40;35.90;;;;;;5063639;28;20119;-69
2022/08/25 10:50:59;;;;;;;6.57;2.15;;;35.40;35.20;;;;;;5056868;28;20031;-69
2022/08/25 10:53:41;;;;;;;5.28;2.42;;;35.40;35.10;;;;;;5085387;28;20060;-69
2022/08/25 10:56:20;;;;;;;5.55;2.75;;;35.50;35.00;;;;;;5091944;28;20057;-69
2022/08/25 10:59:06;;;;;;;5.20;2.10;;;35.40;34.90;;;;;;5082051;28;20021;-71
2022/08/25 11:02:12;;;;;;;6.20;2.22;;;35.50;34.20;;;;;;5087608;28;20034;-71
2022/08/25 11:05:01;;;;;;;6.05;2.55;;;35.50;34.00;;;;;;5073674;28;20050;-71
2022/08/25 11:07:41;;;;;;;6.13;2.70;;;35.50;33.60;;;;;;5065531;28;20047;-70
2022/08/25 11:10:12;;;;;;;6.78;2.53;;;35.50;33.50;;;;;;5069879;28;20031;-69
2022/08/25 11:12:53;;;;;;;5.15;2.35;;;35.40;33.40;;;;;;5077422;28;20060;-70
2022/08/25 11:15:27;;;;;;;4.18;1.95;;;35.40;33.10;;;;;;5070418;28;20138;-69
2022/08/25 11:17:57;;;;;;;6.78;2.17;;;35.40;33.30;;;;;;5092895;28;20107;-70
2022/08/25 11:20:32;;;;;;;6.10;2.53;;;35.40;33.30;;;;;;5075034;28;20078;-70
2022/08/25 11:23:20;;;;;;;5.07;2.20;;;35.50;33.30;;;;;;5088641;28;20032;-69
2022/08/25 11:25:53;;;;;;;4.75;2.33;;;35.50;33.20;;;;;;5073312;28;20433;-70
2022/08/25 11:28:33;;;;;;;3.22;1.88;;;35.60;33.10;;;;;;5074575;28;20040;-70
2022/08/25 11:31:00;;;;;;;;;;;35.70;33.00;;;;;;5087463;28;20039;-70
2022/08/25 11:33:29;;;;;;;3.90;1.92;;;35.70;33.30;;;;;;5088354;28;20423;-70
2022/08/25 11:36:02;;;;;;;4.50;2.13;;;35.60;33.20;;;;;;5076105;28;20035;-69
2022/08/25 11:38:36;;;;;;;4.82;2.13;;;35.60;32.80;;;;;;5092058;28;20039;-71
2022/08/25 11:41:29;;;;;;;7.15;2.20;;;35.70;32.80;;;;;;5089593;28;20029;-69
2022/08/25 11:44:00;;;;;;;6.32;2.28;;;35.70;32.80;;;;;;5083672;28;20036;-70
2022/08/25 11:46:44;;;;;;;4.78;2.00;;;35.70;32.70;;;;;;5093696;28;20070;-69
2022/08/25 11:49:43;;;;;;;5.65;2.53;;;35.70;32.60;;;;;;5083140;28;20055;-69
2022/08/25 11:52:38;;;;;;;6.60;1.90;;;35.70;32.40;;;;;;5079843;28;20124;-69
2022/08/25 11:55:47;;;;;;;3.92;1.77;;;35.70;32.40;;;;;;5086182;28;20115;-69
2022/08/25 11:58:30;;;;;;;4.93;2.17;;;35.60;32.40;;;;;;5056587;28;20438;-69
2022/08/25 12:00:59;;;;;;;4.78;2.20;;;35.60;32.70;;;;;;5083532;28;20037;-69
2022/08/25 12:03:31;;;;;;;3.85;2.05;;;35.50;32.30;;;;;;5071264;28;20024;-69
2022/08/25 12:06:29;;;;;;;7.75;2.42;;;35.40;32.10;;;;;;5058660;28;20040;-69
2022/08/25 12:09:04;;;;;;;3.85;1.80;;;35.20;32.10;;;;;;5064561;28;20071;-69
2022/08/25 12:11:56;;;;;;;5.22;2.05;;;35.10;32.30;;;;;;5094300;28;20492;-69
2022/08/25 12:14:25;;;;;;;4.72;2.15;;;35.10;32.40;;;;;;5086493;28;20036;-68
2022/08/25 12:16:50;;;;;;;6.40;2.30;;;35.00;32.50;;;;;;5082805;28;20028;-68
2022/08/25 12:19:34;;;;;;;5.13;2.17;;;35.00;32.70;;;;;;5065030;28;20032;-68
2022/08/25 12:22:00;;;;;;;4.70;1.95;;;35.00;32.40;;;;;;5069320;28;20025;-68
2022/08/25 12:25:02;;;;;;;5.03;2.08;;;34.90;32.40;;;;;;5078594;28;20028;-69
2022/08/25 12:27:41;;;;;;;5.28;2.10;;;34.90;32.60;;;;;;5095136;28;20032;-69
2022/08/25 12:30:18;;;;;;;4.28;2.13;;;34.80;32.50;;;;;;5071928;28;20410;-69
2022/08/25 12:33:17;;;;;;;4.63;2.15;;;34.70;32.80;;;;;;5051958;28;20099;-68
2022/08/25 12:36:15;;;;;;;6.88;2.15;;;34.60;33.10;;;;;;5059231;28;20020;-68
2022/08/25 12:38:47;;;;;;;4.63;2.17;;;34.60;33.00;;;;;;5074494;28;20065;-69
2022/08/25 12:41:26;;;;;;;5.70;2.22;;;34.50;33.10;;;;;;5090441;28;20894;-69
2022/08/25 12:44:07;;;;;;;5.07;1.90;;;34.40;33.00;;;;;;5078778;28;20077;-68
2022/08/25 12:46:37;;;;;;;4.32;2.17;;;34.40;33.10;;;;;;5085731;28;20020;-69
2022/08/25 12:49:14;;;;;;;5.55;2.25;;;34.40;33.10;;;;;;5070857;28;20043;-70
2022/08/25 12:51:53;;;;;;;6.85;2.20;;;34.30;33.30;;;;;;5071468;28;20056;-69
2022/08/25 12:54:42;;;;;;;6.90;2.20;;;34.20;33.10;;;;;;5065506;28;20077;-69
2022/08/25 12:57:35;;;;;;;4.32;2.28;;;34.10;33.10;;;;;;5082312;28;20119;-68
2022/08/25 13:00:15;;;;;;;5.30;2.13;;;34.10;33.10;;;;;;5050863;28;20440;-68
2022/08/25 13:03:03;;;;;;;6.38;2.25;;;33.90;33.00;;;;;;5068746;28;20023;-69
2022/08/25 13:06:13;;;;;;;7.25;2.30;;;33.80;33.00;;;;;;5068569;28;20349;-69
2022/08/25 13:09:01;;;;;;;5.10;1.90;;;33.70;33.10;;;;;;5087665;28;20061;-68
2022/08/25 13:11:44;;;;;;;5.63;1.98;;;33.60;33.30;;;;;;5084474;28;20042;-69
2022/08/25 13:14:19;;;;;;;4.32;2.00;;;33.40;33.40;;;;;;5067495;28;20028;-69
2022/08/25 13:16:53;;;;;;;6.55;2.25;;;33.30;33.50;;;;;;5067005;28;20505;-69
2022/08/25 13:19:21;;;;;;;5.15;2.05;;;33.20;33.80;;;;;;5074290;28;20032;-69